Time;durP1;ratioP1;P1;durP2;ratioP2;P2;SDS_P1;SDS_P2;PMS_P1;PMS_P2;Temp;Humidity;BMP_temperature;BMP_pressure;BME280_temperature;BME280_humidity;BME280_pressure;Samples;Min_cycle;Max_cycle;Signal;HPM_P1;HPM_P2
2022/07/04 00:00:11;;;;;;;1.05;1.05;;;24.00;56.00;;;;;;5007808;28;20038;-63
2022/07/04 00:02:40;;;;;;;1.55;1.20;;;24.00;55.90;;;;;;5009021;28;20132;-62
2022/07/04 00:05:09;;;;;;;1.45;1.20;;;24.00;55.90;;;;;;5005162;28;20500;-62
2022/07/04 00:07:42;;;;;;;3.05;1.10;;;24.00;55.90;;;;;;5007540;28;20041;-62
2022/07/04 00:10:10;;;;;;;1.13;1.02;;;24.00;55.90;;;;;;5009251;28;20048;-62
2022/07/04 00:12:36;;;;;;;1.10;1.00;;;24.00;55.80;;;;;;5006939;28;20038;-62
2022/07/04 00:15:03;;;;;;;1.23;1.08;;;24.00;55.80;;;;;;5008686;28;20470;-62
2022/07/04 00:17:29;;;;;;;1.85;1.10;;;24.00;55.80;;;;;;5007810;28;20425;-62
2022/07/04 00:19:55;;;;;;;1.13;1.05;;;24.00;55.80;;;;;;5004407;28;20363;-62
2022/07/04 00:22:20;;;;;;;1.83;1.27;;;24.00;55.70;;;;;;5007690;28;20121;-62
2022/07/04 00:24:46;;;;;;;1.17;1.10;;;24.00;55.70;;;;;;5009100;28;20041;-62
2022/07/04 00:27:12;;;;;;;1.95;1.33;;;23.90;55.60;;;;;;5006585;28;20131;-62
2022/07/04 00:29:37;;;;;;;2.80;1.13;;;24.00;55.70;;;;;;5008276;28;20662;-62
2022/07/04 00:32:03;;;;;;;2.20;1.08;;;24.00;55.70;;;;;;5012228;28;20081;-63
2022/07/04 00:34:29;;;;;;;1.33;1.20;;;23.90;55.60;;;;;;5010348;28;20037;-62
2022/07/04 00:36:55;;;;;;;1.65;1.20;;;23.90;55.60;;;;;;5007772;28;20041;-63
2022/07/04 00:39:21;;;;;;;1.17;1.08;;;24.00;55.60;;;;;;5012789;28;20054;-62
2022/07/04 00:41:47;;;;;;;1.30;0.93;;;23.90;55.50;;;;;;5009960;28;20025;-62
2022/07/04 00:44:15;;;;;;;1.70;1.00;;;23.90;55.60;;;;;;5013663;28;20042;-62
2022/07/04 00:46:42;;;;;;;1.60;1.10;;;23.90;55.50;;;;;;5011938;28;20567;-62
2022/07/04 00:49:08;;;;;;;1.10;1.00;;;24.00;55.50;;;;;;5025867;28;20049;-62
2022/07/04 00:51:37;;;;;;;1.70;1.20;;;23.90;55.40;;;;;;5012420;28;20092;-62
2022/07/04 00:54:05;;;;;;;1.27;1.00;;;23.90;55.40;;;;;;5013276;28;20460;-62
2022/07/04 00:56:31;;;;;;;2.95;1.23;;;23.90;55.40;;;;;;5010937;28;20136;-62
2022/07/04 00:58:58;;;;;;;1.77;1.23;;;23.90;55.40;;;;;;5012482;28;20444;-62
2022/07/04 01:01:25;;;;;;;1.23;1.15;;;23.90;55.40;;;;;;5011943;28;20049;-63
2022/07/04 01:03:51;;;;;;;1.25;1.15;;;23.90;55.30;;;;;;5013369;28;20070;-62
2022/07/04 01:06:19;;;;;;;1.65;1.15;;;23.90;55.30;;;;;;5009548;28;20060;-62
2022/07/04 01:08:45;;;;;;;1.92;1.20;;;23.90;55.30;;;;;;5009326;28;20042;-63
2022/07/04 01:11:12;;;;;;;2.13;1.08;;;23.90;55.20;;;;;;5011361;28;20489;-62
2022/07/04 01:13:40;;;;;;;1.27;0.98;;;23.90;55.30;;;;;;5011531;28;20113;-62
2022/07/04 01:16:07;;;;;;;1.15;1.00;;;23.90;55.20;;;;;;5013296;28;20029;-62
2022/07/04 01:18:33;;;;;;;1.30;1.20;;;23.90;55.20;;;;;;5009231;28;20115;-62
2022/07/04 01:20:59;;;;;;;1.20;1.20;;;23.90;55.20;;;;;;5008756;28;20045;-62
2022/07/04 01:23:24;;;;;;;1.15;1.08;;;23.90;55.20;;;;;;5010541;28;20042;-62
2022/07/04 01:25:50;;;;;;;1.75;1.10;;;23.90;55.10;;;;;;5009109;28;20581;-63
2022/07/04 01:28:19;;;;;;;1.38;0.90;;;23.90;55.10;;;;;;5009912;28;20796;-62
2022/07/04 01:30:45;;;;;;;1.63;0.80;;;23.90;55.10;;;;;;5010942;28;20038;-62
2022/07/04 01:33:10;;;;;;;1.02;0.90;;;23.90;55.10;;;;;;5007956;28;20438;-62
2022/07/04 01:35:36;;;;;;;1.10;1.00;;;23.90;55.10;;;;;;5008525;28;20038;-63
2022/07/04 01:38:02;;;;;;;1.13;1.02;;;23.90;55.00;;;;;;5009933;28;20033;-62
2022/07/04 01:40:28;;;;;;;1.95;1.02;;;23.90;55.00;;;;;;4993424;28;20041;-63
2022/07/04 01:42:53;;;;;;;2.05;0.98;;;23.90;55.00;;;;;;5010609;28;20037;-62
2022/07/04 01:45:19;;;;;;;1.23;1.00;;;23.90;55.00;;;;;;5009559;28;20069;-62
2022/07/04 01:47:45;;;;;;;1.50;1.08;;;23.80;54.90;;;;;;5010095;28;20077;-62
2022/07/04 01:50:13;;;;;;;1.00;0.90;;;23.80;54.90;;;;;;5006233;28;20049;-63
2022/07/04 01:52:40;;;;;;;1.17;1.08;;;23.80;54.90;;;;;;5008432;28;20057;-62
2022/07/04 01:55:08;;;;;;;1.70;1.20;;;23.90;54.90;;;;;;5008514;28;20614;-63
2022/07/04 01:57:33;;;;;;;1.67;0.90;;;23.80;54.80;;;;;;5009108;28;20057;-62
2022/07/04 02:02:43;;;;;;;2.03;1.00;;;23.90;54.80;;;;;;5010532;28;20053;-62
2022/07/04 02:05:09;;;;;;;0.98;0.98;;;23.80;54.80;;;;;;5011092;28;20034;-62
2022/07/04 02:07:35;;;;;;;1.00;0.90;;;23.80;54.80;;;;;;5010765;28;20422;-63
2022/07/04 02:10:01;;;;;;;1.10;1.00;;;23.80;54.70;;;;;;5009367;28;20041;-62
2022/07/04 02:15:10;;;;;;;0.93;0.93;;;23.80;54.70;;;;;;5007203;28;20100;-63
2022/07/04 02:17:36;;;;;;;1.13;1.02;;;23.80;54.70;;;;;;5008558;28;20042;-63
2022/07/04 02:20:04;;;;;;;1.58;1.00;;;23.80;54.70;;;;;;5011227;28;20119;-62
2022/07/04 02:22:30;;;;;;;1.02;0.90;;;23.80;54.70;;;;;;5008083;28;20104;-63
2022/07/04 02:24:56;;;;;;;2.05;1.20;;;23.80;54.60;;;;;;5009179;28;20046;-62
2022/07/04 02:27:22;;;;;;;2.08;1.05;;;23.80;54.60;;;;;;5009576;28;20140;-63
2022/07/04 02:29:48;;;;;;;0.98;0.90;;;23.80;54.60;;;;;;5012340;28;20041;-62
2022/07/04 02:32:13;;;;;;;1.92;0.80;;;23.80;54.50;;;;;;5007606;28;20512;-62
2022/07/04 02:34:39;;;;;;;1.70;1.10;;;23.80;55.20;;;;;;5010898;28;20044;-62
2022/07/04 02:37:05;;;;;;;2.13;1.13;;;23.80;54.50;;;;;;5011407;28;20042;-62
2022/07/04 02:39:31;;;;;;;1.00;0.85;;;23.80;54.50;;;;;;5009171;28;20046;-62
2022/07/04 02:41:56;;;;;;;0.90;0.90;;;23.80;54.50;;;;;;5011715;28;20042;-62
2022/07/04 02:44:22;;;;;;;1.15;1.05;;;23.80;54.50;;;;;;5007175;28;20076;-62
2022/07/04 02:46:47;;;;;;;1.55;0.90;;;23.70;54.40;;;;;;5008262;28;20042;-62
2022/07/04 02:49:13;;;;;;;1.48;1.10;;;23.80;54.40;;;;;;5009923;28;20034;-62
2022/07/04 02:51:39;;;;;;;1.90;0.93;;;23.80;54.40;;;;;;5008480;28;20048;-62
2022/07/04 02:54:05;;;;;;;1.20;1.00;;;23.80;54.50;;;;;;5012185;28;20116;-63
2022/07/04 02:56:30;;;;;;;2.00;0.90;;;23.80;54.40;;;;;;5008084;28;20132;-62
2022/07/04 02:58:56;;;;;;;1.42;0.90;;;23.80;54.40;;;;;;5008923;28;20640;-62
2022/07/04 03:01:22;;;;;;;1.08;0.80;;;23.70;54.30;;;;;;5008140;28;20502;-63
2022/07/04 03:03:48;;;;;;;1.52;1.00;;;23.80;54.40;;;;;;5009148;28;20029;-62
2022/07/04 03:06:13;;;;;;;2.28;1.00;;;23.80;54.40;;;;;;5010656;28;20069;-63
2022/07/04 03:08:39;;;;;;;1.58;0.93;;;23.70;54.30;;;;;;5009636;28;20394;-63
2022/07/04 03:11:05;;;;;;;1.05;0.95;;;23.70;54.30;;;;;;5009529;28;20513;-62
2022/07/04 03:13:31;;;;;;;2.60;1.20;;;23.70;54.30;;;;;;5007517;28;20046;-62
2022/07/04 03:15:57;;;;;;;1.15;1.05;;;23.70;54.20;;;;;;5009176;28;20041;-62
2022/07/04 03:18:23;;;;;;;2.28;1.25;;;23.70;54.20;;;;;;5009938;28;20445;-62
2022/07/04 03:20:48;;;;;;;0.70;0.70;;;23.70;54.20;;;;;;5007516;28;20038;-62
2022/07/04 03:23:14;;;;;;;1.48;1.05;;;23.70;54.20;;;;;;5008862;28;20045;-62
2022/07/04 03:25:40;;;;;;;2.15;1.00;;;23.70;54.20;;;;;;5010393;28;20403;-63
2022/07/04 03:28:07;;;;;;;1.48;0.88;;;23.70;54.20;;;;;;5010567;28;20046;-63
2022/07/04 03:30:33;;;;;;;1.67;0.90;;;23.70;54.30;;;;;;5009327;28;20051;-63
2022/07/04 03:32:59;;;;;;;3.78;1.02;;;23.70;54.40;;;;;;5004024;28;20565;-63
2022/07/04 03:35:25;;;;;;;3.38;1.08;;;23.70;54.70;;;;;;5011926;28;20080;-63
2022/07/04 03:37:51;;;;;;;3.47;1.25;;;23.80;55.00;;;;;;5007080;28;20065;-63
2022/07/04 03:40:17;;;;;;;2.45;0.88;;;23.80;55.00;;;;;;5008803;28;21827;-63
2022/07/04 03:42:43;;;;;;;0.82;0.80;;;23.80;54.90;;;;;;5008435;28;20128;-63
2022/07/04 03:45:10;;;;;;;0.98;0.95;;;23.80;54.90;;;;;;5008346;28;20374;-63
2022/07/04 03:47:35;;;;;;;1.15;0.70;;;23.80;54.90;;;;;;5011301;28;20056;-63
2022/07/04 03:50:01;;;;;;;1.15;0.88;;;23.80;54.80;;;;;;5007176;28;20042;-63
2022/07/04 03:52:27;;;;;;;1.90;1.02;;;23.80;54.80;;;;;;5006787;28;20092;-63
2022/07/04 03:54:53;;;;;;;1.98;1.23;;;23.80;54.70;;;;;;5008256;28;20057;-63
2022/07/04 03:57:18;;;;;;;3.22;1.05;;;23.70;54.60;;;;;;5009906;28;20194;-63
2022/07/04 03:59:44;;;;;;;6.32;0.85;;;23.70;54.80;;;;;;5009508;28;20551;-63
2022/07/04 04:02:09;;;;;;;5.35;1.42;;;23.70;54.90;;;;;;5009378;28;20585;-63
2022/07/04 04:07:19;;;;;;;1.52;0.88;;;23.70;55.00;;;;;;5007399;28;20049;-63
2022/07/04 04:09:45;;;;;;;1.17;1.00;;;23.70;54.90;;;;;;5007824;28;20033;-64
2022/07/04 04:12:11;;;;;;;1.30;1.20;;;23.70;54.90;;;;;;5008554;28;20030;-63
2022/07/04 04:14:37;;;;;;;2.70;0.80;;;23.70;54.90;;;;;;5007712;28;20041;-63
2022/07/04 04:17:03;;;;;;;1.48;0.93;;;23.70;54.90;;;;;;5008493;28;20034;-63
2022/07/04 04:19:28;;;;;;;1.10;0.80;;;23.70;54.80;;;;;;5006376;28;20093;-63
2022/07/04 04:21:54;;;;;;;1.60;0.88;;;23.70;54.80;;;;;;5009538;28;20037;-63
2022/07/04 04:24:19;;;;;;;4.07;1.00;;;23.70;54.90;;;;;;5005336;28;20402;-63
2022/07/04 04:26:45;;;;;;;2.83;1.17;;;23.70;54.80;;;;;;5005878;28;20092;-63
2022/07/04 04:29:11;;;;;;;2.00;0.93;;;23.70;54.80;;;;;;5009176;28;20049;-63
2022/07/04 04:31:36;;;;;;;1.30;0.90;;;23.70;54.90;;;;;;5006260;28;20046;-63
2022/07/04 04:34:02;;;;;;;1.65;1.00;;;23.70;54.90;;;;;;5004021;28;20049;-63
2022/07/04 04:36:28;;;;;;;3.42;1.00;;;23.70;54.80;;;;;;5007142;28;20038;-63
2022/07/04 04:38:53;;;;;;;5.72;1.20;;;23.70;54.70;;;;;;5009255;28;20037;-63
2022/07/04 04:41:19;;;;;;;2.00;1.20;;;23.70;54.80;;;;;;5007497;28;20034;-63
2022/07/04 04:43:45;;;;;;;1.45;0.85;;;23.70;54.90;;;;;;5007913;28;20145;-63
2022/07/04 04:46:11;;;;;;;1.30;0.80;;;23.70;54.90;;;;;;5007548;28;20387;-63
2022/07/04 04:48:36;;;;;;;0.98;0.90;;;23.70;55.40;;;;;;4991212;28;20045;-63
2022/07/04 04:51:02;;;;;;;1.67;0.95;;;23.70;54.70;;;;;;5004439;28;20052;-63
2022/07/04 04:53:28;;;;;;;0.90;0.77;;;23.70;54.70;;;;;;5004254;28;20341;-63
2022/07/04 04:55:54;;;;;;;2.60;1.33;;;23.70;54.60;;;;;;5006555;28;20383;-63
2022/07/04 04:58:21;;;;;;;2.45;1.20;;;23.70;54.60;;;;;;5006012;28;20037;-63
2022/07/04 05:00:49;;;;;;;2.58;1.00;;;23.70;54.60;;;;;;5005029;28;20042;-63
2022/07/04 05:03:18;;;;;;;1.73;0.80;;;23.70;54.70;;;;;;5003551;28;20049;-63
2022/07/04 05:05:44;;;;;;;2.20;0.90;;;23.70;54.70;;;;;;5007084;28;20387;-62
2022/07/04 05:08:12;;;;;;;0.95;0.85;;;23.70;54.70;;;;;;5019847;28;20061;-63
2022/07/04 05:10:38;;;;;;;2.90;1.13;;;23.70;54.70;;;;;;5005186;28;20104;-63
2022/07/04 05:13:04;;;;;;;1.45;0.85;;;23.70;54.70;;;;;;5007465;28;20048;-62
2022/07/04 05:15:30;;;;;;;2.08;0.98;;;23.70;54.70;;;;;;5008869;28;20026;-63
2022/07/04 05:17:55;;;;;;;1.50;0.82;;;23.70;54.70;;;;;;5008926;28;20123;-62
2022/07/04 05:20:21;;;;;;;2.33;0.93;;;23.70;54.80;;;;;;5006462;28;20041;-62
2022/07/04 05:22:47;;;;;;;1.40;0.95;;;23.70;54.80;;;;;;5004998;28;20057;-63
2022/07/04 05:25:12;;;;;;;1.45;0.85;;;23.70;54.70;;;;;;5005783;28;20052;-63
2022/07/04 05:27:39;;;;;;;2.25;1.10;;;23.60;54.70;;;;;;5009027;28;20045;-63
2022/07/04 05:30:06;;;;;;;2.53;1.00;;;23.70;54.80;;;;;;5010042;28;20045;-62
2022/07/04 05:32:31;;;;;;;2.55;1.10;;;23.70;54.80;;;;;;5008120;28;20050;-63
2022/07/04 05:34:58;;;;;;;4.85;1.48;;;23.70;54.90;;;;;;5010465;28;20045;-63
2022/07/04 05:37:23;;;;;;;3.22;1.00;;;23.70;54.90;;;;;;5009586;28;20124;-62
2022/07/04 05:39:49;;;;;;;3.13;1.20;;;23.60;54.90;;;;;;5009737;28;20121;-63
2022/07/04 05:42:16;;;;;;;3.10;0.75;;;23.60;54.90;;;;;;5010605;28;20065;-63
2022/07/04 05:44:42;;;;;;;2.97;0.95;;;23.60;54.80;;;;;;5010087;28;20087;-63
2022/07/04 05:47:07;;;;;;;1.95;1.05;;;23.60;54.80;;;;;;5012387;28;20058;-62
2022/07/04 05:49:33;;;;;;;3.30;1.10;;;23.60;54.80;;;;;;5010727;28;20049;-63
2022/07/04 05:51:59;;;;;;;2.22;0.90;;;23.60;54.90;;;;;;5004219;28;20126;-62
2022/07/04 05:54:24;;;;;;;1.33;0.80;;;23.60;54.90;;;;;;5010952;28;20033;-63
2022/07/04 05:56:50;;;;;;;0.93;0.77;;;23.60;54.90;;;;;;5009503;28;20088;-63
2022/07/04 05:59:16;;;;;;;2.60;1.20;;;23.70;55.00;;;;;;5012451;28;20046;-62
2022/07/04 06:01:41;;;;;;;1.88;1.08;;;23.60;54.90;;;;;;5010436;28;20033;-62
2022/07/04 06:04:07;;;;;;;1.55;1.00;;;23.60;55.00;;;;;;5010529;28;20167;-63
2022/07/04 06:06:33;;;;;;;2.92;0.90;;;23.60;55.00;;;;;;5009356;28;20084;-63
2022/07/04 06:09:00;;;;;;;2.45;1.10;;;23.60;55.00;;;;;;5008567;28;20094;-62
2022/07/04 06:11:25;;;;;;;2.28;1.10;;;23.60;55.00;;;;;;5010222;28;20551;-62
2022/07/04 06:13:51;;;;;;;2.78;0.98;;;23.60;55.10;;;;;;5011418;28;20054;-62
2022/07/04 06:16:17;;;;;;;4.68;1.05;;;23.60;55.10;;;;;;5010238;28;20038;-62
2022/07/04 06:18:43;;;;;;;2.45;0.90;;;23.60;55.20;;;;;;5012440;28;20033;-62
2022/07/04 06:21:09;;;;;;;3.35;1.08;;;23.60;55.40;;;;;;5006973;28;20490;-62
2022/07/04 06:23:35;;;;;;;2.22;0.90;;;23.60;55.40;;;;;;5005895;28;20072;-62
2022/07/04 06:26:02;;;;;;;1.70;0.80;;;23.60;55.40;;;;;;5008157;28;20041;-62
2022/07/04 06:28:27;;;;;;;2.72;1.00;;;23.60;55.50;;;;;;5008432;28;20049;-62
2022/07/04 06:30:53;;;;;;;2.38;0.85;;;23.70;55.50;;;;;;5008375;28;20048;-61
2022/07/04 06:33:19;;;;;;;2.70;1.08;;;23.70;55.50;;;;;;5006319;28;20393;-62
2022/07/04 06:35:45;;;;;;;2.78;0.90;;;23.70;55.60;;;;;;5006153;28;20095;-63
2022/07/04 06:38:19;;;;;;;1.52;0.90;;;23.60;55.60;;;;;;5008155;28;20038;-63
2022/07/04 06:40:46;;;;;;;3.47;1.38;;;23.70;55.90;;;;;;5005537;28;20045;-62
2022/07/04 06:43:12;;;;;;;6.60;1.73;;;23.60;55.80;;;;;;5006973;28;20773;-63
2022/07/04 06:45:38;;;;;;;4.90;1.10;;;23.70;55.70;;;;;;5008130;28;20545;-62
2022/07/04 06:48:05;;;;;;;3.85;1.30;;;23.70;55.90;;;;;;5008189;28;20046;-63
2022/07/04 06:50:34;;;;;;;6.82;1.20;;;23.70;56.10;;;;;;5008794;28;20427;-63
2022/07/04 06:53:04;;;;;;;8.15;1.10;;;23.70;56.30;;;;;;5007088;28;20380;-63
2022/07/04 06:55:30;;;;;;;7.80;1.33;;;23.70;56.60;;;;;;5004326;28;20099;-63
2022/07/04 06:57:56;;;;;;;7.18;1.40;;;23.80;56.80;;;;;;5007364;28;20066;-63
2022/07/04 07:00:22;;;;;;;6.32;1.40;;;23.80;57.00;;;;;;5009796;28;20518;-62
2022/07/04 07:02:47;;;;;;;7.47;1.30;;;23.80;57.10;;;;;;5007691;28;20451;-66
2022/07/04 07:05:13;;;;;;;2.70;0.93;;;23.80;57.20;;;;;;5002693;28;20054;-63
2022/07/04 07:07:38;;;;;;;7.72;1.35;;;23.80;57.20;;;;;;5007376;28;20045;-64
2022/07/04 07:10:06;;;;;;;6.18;1.10;;;23.80;57.20;;;;;;5003290;28;20124;-64
2022/07/04 07:12:33;;;;;;;3.95;1.10;;;23.80;57.10;;;;;;5006172;28;20102;-63
2022/07/04 07:14:59;;;;;;;3.97;1.40;;;23.80;57.00;;;;;;4994617;28;20042;-63
2022/07/04 07:17:26;;;;;;;5.90;1.40;;;23.80;57.10;;;;;;5006135;28;20045;-63
2022/07/04 07:19:52;;;;;;;2.97;1.20;;;23.80;57.30;;;;;;5006529;28;20247;-63
2022/07/04 07:22:17;;;;;;;7.40;1.42;;;23.80;57.40;;;;;;4987313;28;20041;-63
2022/07/04 07:24:43;;;;;;;2.35;1.00;;;23.80;57.60;;;;;;5003395;28;20644;-64
2022/07/04 07:27:10;;;;;;;3.40;1.20;;;23.80;57.60;;;;;;5003452;28;20378;-61
2022/07/04 07:29:38;;;;;;;4.20;1.38;;;23.80;57.70;;;;;;4988113;28;20050;-64
2022/07/04 07:32:13;;;;;;;3.00;1.02;;;23.80;57.90;;;;;;4990687;28;20049;-61
2022/07/04 07:34:40;;;;;;;2.03;1.08;;;23.80;58.00;;;;;;4991677;28;20446;-64
2022/07/04 07:37:07;;;;;;;4.90;1.48;;;23.80;58.20;;;;;;5018447;28;20037;-65
2022/07/04 07:39:34;;;;;;;3.25;1.27;;;23.90;58.60;;;;;;4985748;28;20073;-61
2022/07/04 07:42:00;;;;;;;3.95;1.25;;;23.80;58.50;;;;;;4988839;28;20176;-62
2022/07/04 07:44:27;;;;;;;3.08;1.17;;;23.90;58.50;;;;;;5008432;28;20715;-63
2022/07/04 07:46:53;;;;;;;3.85;1.10;;;23.90;58.50;;;;;;5004203;28;20445;-62
2022/07/04 07:49:20;;;;;;;2.80;1.40;;;23.80;58.40;;;;;;4988389;28;20060;-63
2022/07/04 07:51:46;;;;;;;2.95;1.38;;;23.90;58.60;;;;;;4991012;28;20687;-62
2022/07/04 07:54:13;;;;;;;4.57;1.50;;;23.90;58.50;;;;;;5005926;28;20068;-62
2022/07/04 07:56:39;;;;;;;2.75;1.15;;;23.90;58.50;;;;;;5006548;28;20034;-63
2022/07/04 07:59:05;;;;;;;3.47;0.98;;;23.90;58.50;;;;;;4989116;28;20033;-62
2022/07/04 08:01:31;;;;;;;3.42;1.40;;;23.90;58.30;;;;;;5005502;28;20054;-61
2022/07/04 08:06:41;;;;;;;4.63;1.45;;;23.80;58.00;;;;;;5004978;28;20621;-62
2022/07/04 08:09:07;;;;;;;6.22;2.13;;;23.90;58.10;;;;;;5005212;28;20038;-62
2022/07/04 08:11:32;;;;;;;5.60;1.55;;;23.90;58.20;;;;;;5008105;28;20501;-61
2022/07/04 08:13:58;;;;;;;4.50;1.67;;;23.80;58.20;;;;;;5004350;28;20720;-65
2022/07/04 08:16:24;;;;;;;2.92;1.17;;;23.80;58.20;;;;;;5007518;28;20038;-62
2022/07/04 08:18:49;;;;;;;4.15;1.45;;;23.80;58.30;;;;;;5004919;28;20095;-62
2022/07/04 08:21:15;;;;;;;3.83;1.30;;;23.90;58.10;;;;;;5009026;28;20322;-62
2022/07/04 08:23:41;;;;;;;3.83;1.55;;;23.80;57.90;;;;;;5004555;28;21266;-62
2022/07/04 08:26:07;;;;;;;7.30;1.23;;;23.80;57.90;;;;;;5007012;28;20042;-62
2022/07/04 08:28:33;;;;;;;6.10;1.50;;;23.80;58.10;;;;;;5008202;28;21350;-62
2022/07/04 08:30:59;;;;;;;4.95;1.35;;;23.80;58.20;;;;;;5008224;28;20041;-62
2022/07/04 08:33:25;;;;;;;5.60;1.35;;;23.80;58.20;;;;;;5006708;28;20045;-62
2022/07/04 08:35:51;;;;;;;3.15;1.20;;;23.90;58.30;;;;;;4983708;28;20048;-62
2022/07/04 08:38:17;;;;;;;4.00;1.20;;;23.80;58.20;;;;;;5006626;28;20041;-62
2022/07/04 08:40:43;;;;;;;2.88;1.40;;;23.90;58.30;;;;;;5004591;28;20034;-64
2022/07/04 08:43:14;;;;;;;4.57;1.20;;;23.90;58.30;;;;;;5009187;28;20108;-63
2022/07/04 08:45:40;;;;;;;3.60;1.40;;;23.90;58.60;;;;;;5007852;28;20050;-62
2022/07/04 08:48:09;;;;;;;6.78;1.25;;;23.90;58.80;;;;;;5007675;28;20898;-62
2022/07/04 08:50:46;;;;;;;5.40;1.40;;;23.90;58.90;;;;;;5003776;28;20066;-62
2022/07/04 08:53:19;;;;;;;4.72;1.17;;;23.90;59.10;;;;;;5003242;28;20045;-62
2022/07/04 08:58:31;;;;;;;1.83;1.00;;;23.90;59.10;;;;;;5009154;28;20037;-63
2022/07/04 09:00:59;;;;;;;6.45;1.00;;;23.90;59.40;;;;;;5003782;28;20048;-62
2022/07/04 09:03:26;;;;;;;4.35;1.20;;;24.00;59.40;;;;;;5010202;28;20468;-62
2022/07/04 09:05:52;;;;;;;10.27;1.33;;;23.90;59.30;;;;;;5011326;28;20045;-63
2022/07/04 09:08:18;;;;;;;8.65;1.55;;;24.00;59.20;;;;;;5010958;28;20034;-63
2022/07/04 09:10:44;;;;;;;3.65;1.10;;;24.00;59.00;;;;;;5007645;28;20438;-62
2022/07/04 09:13:11;;;;;;;5.43;1.10;;;24.00;58.90;;;;;;5008118;28;20108;-62
2022/07/04 09:15:38;;;;;;;3.75;1.23;;;24.00;58.90;;;;;;5010506;28;20042;-62
2022/07/04 09:18:04;;;;;;;2.85;1.00;;;24.00;58.80;;;;;;5012486;28;20030;-62
2022/07/04 09:20:32;;;;;;;3.35;1.02;;;23.90;58.70;;;;;;5011286;28;20041;-62
2022/07/04 09:22:58;;;;;;;4.82;1.20;;;24.00;58.70;;;;;;5011277;28;20117;-62
2022/07/04 09:25:25;;;;;;;5.65;1.20;;;24.00;58.60;;;;;;5010811;28;20047;-61
2022/07/04 09:27:56;;;;;;;3.78;1.10;;;24.00;58.50;;;;;;5009650;28;20383;-62
2022/07/04 09:30:22;;;;;;;;;;;24.00;58.40;;;;;;5010879;28;20180;-62
2022/07/04 09:32:59;;;;;;;4.88;1.70;;;24.00;58.30;;;;;;5009815;28;19955;-63
2022/07/04 09:35:26;;;;;;;4.07;1.08;;;23.90;58.40;;;;;;5010301;28;20080;-61
2022/07/04 09:37:54;;;;;;;5.65;1.25;;;23.90;58.70;;;;;;5010525;28;20045;-63
2022/07/04 09:40:23;;;;;;;2.30;1.20;;;24.00;59.40;;;;;;5001120;28;20042;-62
2022/07/04 09:42:49;;;;;;;6.68;1.20;;;24.00;59.60;;;;;;5014662;28;20037;-63
2022/07/04 09:45:14;;;;;;;4.82;1.27;;;24.00;59.40;;;;;;5003549;28;20061;-63
2022/07/04 09:47:41;;;;;;;4.10;1.20;;;24.00;59.30;;;;;;5006148;28;20053;-63
2022/07/04 09:50:19;;;;;;;7.80;1.42;;;24.00;59.00;;;;;;5010952;28;20084;-63
2022/07/04 09:52:55;;;;;;;3.10;1.00;;;24.00;59.00;;;;;;5006715;28;20069;-63
2022/07/04 09:55:29;;;;;;;2.20;0.95;;;24.00;58.60;;;;;;5009579;28;20042;-63
2022/07/04 09:58:00;;;;;;;6.60;1.52;;;24.10;58.40;;;;;;5009525;28;20034;-63
2022/07/04 10:00:31;;;;;;;4.45;1.08;;;24.20;58.20;;;;;;5010379;28;20037;-64
2022/07/04 10:03:19;;;;;;;4.47;1.40;;;24.20;58.20;;;;;;5000749;28;20046;-63
2022/07/04 10:05:46;;;;;;;4.15;0.80;;;24.20;58.30;;;;;;5006820;28;20041;-64
2022/07/04 10:08:12;;;;;;;4.97;1.00;;;24.20;58.40;;;;;;5007228;28;20069;-64
2022/07/04 10:10:44;;;;;;;5.55;1.35;;;24.20;58.40;;;;;;4987812;28;20129;-63
2022/07/04 10:13:12;;;;;;;4.63;0.90;;;24.20;58.40;;;;;;4987721;28;20129;-63
2022/07/04 10:15:42;;;;;;;2.03;1.20;;;24.10;58.40;;;;;;5008027;28;20038;-63
2022/07/04 10:18:08;;;;;;;;;;;24.10;58.30;;;;;;5005429;28;20030;-63
2022/07/04 10:20:35;;;;;;;5.05;1.20;;;24.00;58.30;;;;;;5008677;28;20764;-63
2022/07/04 10:23:01;;;;;;;2.78;1.70;;;24.00;58.40;;;;;;5011106;28;20048;-63
2022/07/04 10:25:28;;;;;;;4.40;2.20;;;24.00;59.00;;;;;;5009214;28;20091;-63
2022/07/04 10:27:53;;;;;;;5.13;2.33;;;24.00;59.60;;;;;;5008234;28;20453;-64
2022/07/04 10:30:29;;;;;;;5.45;2.28;;;24.10;60.60;;;;;;5010768;28;20072;-63
2022/07/04 10:32:58;;;;;;;4.32;1.77;;;24.10;61.30;;;;;;5011633;28;20375;-63
2022/07/04 10:36:01;;;;;;;5.70;1.70;;;24.20;61.30;;;;;;5009308;28;20397;-64
2022/07/04 10:38:29;;;;;;;8.02;1.70;;;24.20;61.20;;;;;;5012578;28;20124;-63
2022/07/04 10:40:59;;;;;;;7.40;1.77;;;24.20;60.90;;;;;;5010909;28;20048;-63
2022/07/04 10:43:37;;;;;;;6.55;1.70;;;24.10;60.80;;;;;;5009455;28;20402;-63
2022/07/04 10:46:15;;;;;;;6.75;1.70;;;24.10;60.70;;;;;;5006123;28;20053;-64
2022/07/04 10:48:51;;;;;;;2.63;1.40;;;24.10;60.60;;;;;;5005407;28;20053;-63
2022/07/04 10:51:50;;;;;;;2.90;1.13;;;24.10;60.50;;;;;;5007815;28;20048;-63
2022/07/04 10:54:32;;;;;;;5.60;1.33;;;24.10;60.20;;;;;;4993756;28;20042;-63
2022/07/04 10:57:08;;;;;;;4.78;2.20;;;24.10;59.70;;;;;;5002271;28;20038;-63
2022/07/04 10:59:34;;;;;;;2.70;0.90;;;24.10;59.70;;;;;;4998125;28;20042;-62
2022/07/04 11:02:09;;;;;;;4.10;1.23;;;24.10;59.70;;;;;;4995668;28;20040;-63
2022/07/04 11:04:55;;;;;;;4.10;1.60;;;24.10;59.70;;;;;;5010029;28;20045;-63
2022/07/04 11:07:30;;;;;;;5.00;1.27;;;24.10;59.20;;;;;;5008992;28;20131;-62
2022/07/04 11:10:33;;;;;;;3.60;1.38;;;24.10;59.00;;;;;;5008555;28;20041;-64
2022/07/04 11:12:56;;;;;;;2.97;1.30;;;24.10;59.00;;;;;;5004835;28;20081;-65
2022/07/04 11:15:25;;;;;;;5.80;1.17;;;24.10;58.90;;;;;;5005140;28;20124;-63
2022/07/04 11:17:53;;;;;;;7.70;1.58;;;24.10;58.70;;;;;;5004377;28;20052;-64
2022/07/04 11:20:19;;;;;;;3.10;1.10;;;24.00;58.60;;;;;;5004427;28;20034;-63
2022/07/04 11:22:45;;;;;;;4.05;1.00;;;24.00;58.40;;;;;;5003040;28;20042;-63
2022/07/04 11:25:11;;;;;;;7.07;1.02;;;24.00;58.20;;;;;;5009580;28;20037;-62
2022/07/04 11:27:38;;;;;;;6.70;1.30;;;24.00;58.10;;;;;;5008544;28;20046;-63
2022/07/04 11:30:04;;;;;;;4.35;1.40;;;24.00;58.10;;;;;;5009536;28;21004;-62
2022/07/04 11:32:32;;;;;;;4.47;1.17;;;24.10;58.60;;;;;;5009050;28;20052;-62
2022/07/04 11:34:57;;;;;;;2.47;1.00;;;24.00;58.50;;;;;;5006245;28;20042;-63
2022/07/04 11:37:23;;;;;;;4.60;1.10;;;24.10;58.40;;;;;;5007725;28;20487;-64
2022/07/04 11:45:02;;;;;;;4.57;1.27;;;24.00;58.10;;;;;;5008347;28;20469;-62
2022/07/04 11:45:48;;;;;;;3.22;1.00;;;24.00;57.80;;;;;;5007493;28;20054;-63
2022/07/04 11:48:21;;;;;;;2.10;0.88;;;24.00;57.90;;;;;;5009273;28;20052;-62
2022/07/04 11:50:47;;;;;;;1.95;1.25;;;24.00;57.60;;;;;;5007968;28;20045;-63
2022/07/04 11:53:13;;;;;;;3.28;1.15;;;24.00;57.40;;;;;;5006543;28;20045;-63
2022/07/04 11:55:38;;;;;;;3.58;1.55;;;24.00;57.30;;;;;;5009314;28;20034;-62
2022/07/04 11:58:04;;;;;;;4.07;1.70;;;24.00;57.00;;;;;;5006883;28;20034;-62
2022/07/04 12:00:31;;;;;;;3.13;1.60;;;24.00;56.80;;;;;;5010326;28;20653;-63
2022/07/04 12:02:59;;;;;;;5.47;1.60;;;24.00;56.50;;;;;;5006671;28;20041;-63
2022/07/04 12:05:25;;;;;;;5.55;1.90;;;24.00;56.50;;;;;;5007852;28;20069;-62
2022/07/04 12:07:51;;;;;;;2.40;1.20;;;24.00;56.30;;;;;;5009074;28;20146;-62
2022/07/04 12:10:22;;;;;;;4.65;1.52;;;24.00;56.10;;;;;;5008140;28;20099;-62
2022/07/04 12:12:57;;;;;;;3.17;1.23;;;24.00;55.90;;;;;;5023829;28;20502;-62
2022/07/04 12:15:24;;;;;;;1.95;0.95;;;24.00;56.00;;;;;;5006847;28;20041;-62
2022/07/04 12:17:53;;;;;;;2.03;1.20;;;24.00;56.30;;;;;;5007454;28;20080;-63
2022/07/04 12:20:19;;;;;;;3.35;1.30;;;24.00;56.30;;;;;;5002435;28;20430;-62
2022/07/04 12:22:54;;;;;;;2.30;1.38;;;24.00;56.10;;;;;;5010218;28;20036;-62
2022/07/04 12:25:40;;;;;;;1.52;1.00;;;24.00;56.00;;;;;;5003421;28;20042;-64
2022/07/04 12:28:09;;;;;;;2.70;1.13;;;24.00;55.90;;;;;;5010135;28;20402;-63
2022/07/04 12:30:53;;;;;;;2.95;0.98;;;24.00;56.00;;;;;;5014196;28;20045;-63
2022/07/04 12:33:21;;;;;;;1.88;1.13;;;24.00;56.00;;;;;;5010317;28;20060;-62
2022/07/04 12:35:49;;;;;;;2.25;1.00;;;24.00;56.00;;;;;;5004734;28;20486;-62
2022/07/04 12:38:23;;;;;;;1.65;1.10;;;24.00;55.90;;;;;;5009770;28;20029;-61
2022/07/04 12:40:53;;;;;;;3.05;1.10;;;24.00;55.70;;;;;;5009461;28;20053;-62
2022/07/04 12:43:21;;;;;;;2.08;1.05;;;24.00;55.70;;;;;;5010401;28;20053;-62
2022/07/04 12:45:49;;;;;;;2.03;1.17;;;24.00;55.50;;;;;;5009309;28;20053;-64
2022/07/04 12:48:20;;;;;;;1.63;1.15;;;23.90;55.40;;;;;;5010972;28;20570;-61
2022/07/04 12:50:46;;;;;;;4.45;1.65;;;24.00;55.50;;;;;;5010538;28;20038;-62
2022/07/04 12:53:12;;;;;;;3.78;1.20;;;24.00;55.50;;;;;;5008676;28;20437;-62
2022/07/04 12:55:40;;;;;;;3.55;1.17;;;24.00;55.30;;;;;;5003399;28;20091;-61
2022/07/04 12:58:06;;;;;;;4.57;1.40;;;24.00;55.00;;;;;;5009184;28;20038;-62
2022/07/04 13:00:32;;;;;;;3.50;1.00;;;24.00;54.60;;;;;;5008825;28;20037;-62
2022/07/04 13:02:57;;;;;;;3.63;1.08;;;24.00;54.80;;;;;;5009704;28;20152;-62
2022/07/04 13:05:23;;;;;;;1.70;0.98;;;24.00;54.70;;;;;;5011688;28;20033;-61